Time;durP1;ratioP1;P1;durP2;ratioP2;P2;SDS_P1;SDS_P2;PMS_P1;PMS_P2;Temp;Humidity;BMP_temperature;BMP_pressure;BME280_temperature;BME280_humidity;BME280_pressure;Samples;Min_cycle;Max_cycle;Signal;HPM_P1;HPM_P2
2023/01/29 00:00:09;;;;;;;;;41.25;36.50;;;;;6.18;51.10;102703.47;5078612;27;45514;-61
2023/01/29 00:02:35;;;;;;;;;44.50;39.75;;;;;6.15;51.07;102699.03;5078736;28;45342;-60
2023/01/29 00:05:00;;;;;;;;;40.50;38.25;;;;;6.13;51.03;102700.78;5084489;27;45388;-60
2023/01/29 00:07:25;;;;;;;;;39.50;35.50;;;;;6.13;51.07;102700.78;5099597;27;45403;-60
2023/01/29 00:09:51;;;;;;;;;43.25;38.25;;;;;6.10;51.25;102695.47;5079866;27;45461;-60
2023/01/29 00:12:16;;;;;;;;;42.00;38.25;;;;;6.09;51.66;102699.00;5077375;28;47090;-60
2023/01/29 00:14:42;;;;;;;;;46.50;37.75;;;;;6.08;51.42;102699.88;5078255;27;45682;-60
2023/01/29 00:17:07;;;;;;;;;50.00;41.00;;;;;6.06;51.36;102699.88;5079014;27;45334;-60
2023/01/29 00:19:33;;;;;;;;;40.00;36.00;;;;;6.04;51.59;102687.44;5097704;27;45371;-60
2023/01/29 00:21:58;;;;;;;;;43.00;38.00;;;;;6.07;51.40;102698.09;5086832;27;46365;-60
2023/01/29 00:24:23;;;;;;;;;44.00;37.25;;;;;6.08;51.48;102697.22;5078332;27;45569;-61
2023/01/29 00:26:49;;;;;;;;;41.25;36.75;;;;;6.05;51.79;102689.22;5078797;27;45608;-60
2023/01/29 00:29:14;;;;;;;;;48.25;40.00;;;;;6.06;51.71;102683.00;5078290;27;45548;-61
2023/01/29 05:33:30;;;;;;;;;57.33;44.33;;;;;4.05;60.38;102656.66;5078564;28;45818;-60
2023/01/29 05:35:58;;;;;;;;;53.33;45.67;;;;;4.02;60.25;102653.94;5081251;28;46394;-60
2023/01/29 05:38:24;;;;;;;;;48.00;42.00;;;;;4.00;60.49;102650.38;5081221;28;45342;-60
2023/01/29 05:40:49;;;;;;;;;65.67;45.67;;;;;4.02;60.86;102654.84;5081526;28;45311;-59
2023/01/29 05:43:20;;;;;;;;;55.00;45.67;;;;;3.98;60.74;102654.81;5080884;28;45358;-59
2023/01/29 05:45:57;;;;;;;;;50.00;42.67;;;;;3.86;61.29;102646.69;5074044;28;46870;-60
2023/01/29 05:48:24;;;;;;;;;58.00;43.00;;;;;3.90;61.37;102670.63;5081293;28;45380;-60
2023/01/29 05:50:50;;;;;;;;;48.33;45.33;;;;;3.90;61.13;102669.75;5081016;28;45339;-60
2023/01/29 05:53:15;;;;;;;;;59.67;49.00;;;;;3.77;61.28;102666.03;5081037;28;45322;-59
2023/01/29 05:55:45;;;;;;;;;63.33;51.33;;;;;3.66;61.86;102662.34;5080785;28;45535;-60
2023/01/29 05:58:11;;;;;;;;;61.67;47.33;;;;;3.63;62.15;102662.31;5080848;28;45400;-59
2023/01/29 06:00:36;;;;;;;;;58.00;45.67;;;;;3.41;62.47;102653.16;5080839;28;45261;-60
2023/01/29 06:03:01;;;;;;;;;64.00;48.67;;;;;3.49;62.17;102666.56;5080925;28;45534;-61
2023/01/29 06:05:27;;;;;;;;;50.33;44.00;;;;;3.46;62.74;102669.16;5062600;28;47111;-61
2023/01/29 06:07:52;;;;;;;;;51.67;45.33;;;;;3.39;62.60;102660.22;5081174;28;45292;-60
2023/01/29 06:10:17;;;;;;;;;59.00;49.00;;;;;3.49;62.73;102675.38;5080806;28;45406;-60
2023/01/29 06:12:44;;;;;;;;;62.00;47.67;;;;;3.47;62.73;102673.59;5081185;28;45370;-59
2023/01/29 06:15:10;;;;;;;;;55.67;48.67;;;;;3.45;62.81;102675.31;5062245;28;46178;-59
2023/01/29 06:17:36;;;;;;;;;49.67;41.67;;;;;3.44;62.21;102687.69;5081032;28;45313;-60
2023/01/29 06:20:03;;;;;;;;;64.67;50.00;;;;;3.34;63.06;102680.47;5081082;28;45419;-60
2023/01/29 06:22:28;;;;;;;;;51.00;46.00;;;;;3.28;62.82;102675.97;5062716;28;46186;-60
2023/01/29 06:24:53;;;;;;;;;63.00;50.33;;;;;3.26;62.90;102682.13;5080502;28;46279;-60
2023/01/29 06:27:19;;;;;;;;;64.33;50.00;;;;;3.14;63.34;102676.66;5062456;28;45252;-59
2023/01/29 06:29:44;;;;;;;;;64.67;46.67;;;;;3.17;63.38;102689.94;5080410;28;45337;-60
2023/01/29 06:32:09;;;;;;;;;62.00;45.33;;;;;3.23;63.37;102687.38;5080646;28;45346;-61
2023/01/29 06:34:35;;;;;;;;;46.67;38.00;;;;;3.22;62.93;102678.53;5080465;28;45257;-60
2023/01/29 06:37:00;;;;;;;;;57.00;45.33;;;;;3.30;63.00;102690.16;5080437;28;45235;-60
2023/01/29 06:39:26;;;;;;;;;60.67;46.00;;;;;3.27;63.27;102694.50;5080615;28;45349;-60
2023/01/29 06:41:51;;;;;;;;;63.67;46.00;;;;;3.24;63.44;102697.09;5078999;28;45700;-59
2023/01/29 06:44:16;;;;;;;;;56.00;45.67;;;;;3.12;63.19;102678.38;5080102;28;46021;-59
2023/01/29 06:46:41;;;;;;;;;46.67;44.00;;;;;3.15;63.62;102692.53;5080475;28;45448;-60
2023/01/29 06:49:07;;;;;;;;;59.33;45.00;;;;;3.19;63.37;102704.09;5080477;28;45346;-60
2023/01/29 06:51:32;;;;;;;;;48.67;44.33;;;;;3.10;63.78;102688.94;5061916;28;45475;-60
2023/01/29 06:53:58;;;;;;;;;51.00;43.33;;;;;3.21;63.59;102697.06;5079701;28;45501;-60
2023/01/29 06:56:23;;;;;;;;;59.33;43.33;;;;;3.12;63.51;102675.72;5062049;28;45301;-60
2023/01/29 06:58:49;;;;;;;;;55.00;44.00;;;;;3.21;63.19;102682.06;5078173;28;45553;-60
2023/01/29 07:01:14;;;;;;;;;57.67;48.33;;;;;3.32;62.92;102691.03;5078786;28;45304;-60
2023/01/29 07:03:41;;;;;;;;;63.67;48.33;;;;;3.41;62.73;102701.78;5079641;28;46183;-58
2023/01/29 07:06:07;;;;;;;;;50.00;44.00;;;;;3.44;63.02;102708.91;5078737;28;45440;-60
2023/01/29 07:08:35;;;;;;;;;50.00;42.33;;;;;3.40;62.61;102693.84;5079855;28;45475;-61
2023/01/29 07:11:01;;;;;;;;;51.00;43.33;;;;;3.40;62.46;102694.69;5080019;28;45297;-60
2023/01/29 07:13:27;;;;;;;;;55.33;43.67;;;;;3.25;62.74;102678.56;5079578;28;46102;-60
2023/01/29 07:15:52;;;;;;;;;39.67;38.67;;;;;3.32;63.20;102698.09;5080137;28;45316;-60
2023/01/29 07:18:17;;;;;;;;;53.33;44.67;;;;;3.30;62.82;102707.81;5080135;28;45434;-60
2023/01/29 07:20:43;;;;;;;;;57.00;47.67;;;;;3.18;63.29;102670.50;5079867;28;45446;-58
2023/01/29 07:23:12;;;;;;;;;58.33;44.67;;;;;3.35;63.17;102706.13;5079906;28;46039;-60
2023/01/29 07:25:39;;;;;;;;;56.00;45.00;;;;;3.32;63.20;102698.09;5079893;28;45402;-59
2023/01/29 07:28:04;;;;;;;;;55.67;45.33;;;;;3.17;63.44;102688.16;5079526;28;45277;-62
2023/01/29 07:30:30;;;;;;;;;43.00;37.00;;;;;3.23;63.04;102696.19;5079728;28;45422;-60
2023/01/29 07:33:00;;;;;;;;;48.67;41.33;;;;;3.19;63.11;102704.09;5079188;28;45442;-60
2023/01/29 07:35:25;;;;;;;;;52.00;41.00;;;;;3.12;63.51;102703.13;5079523;28;45459;-60
2023/01/29 07:37:51;;;;;;;;;61.00;45.00;;;;;3.14;63.50;102696.09;5079515;28;45319;-60
2023/01/29 07:40:16;;;;;;;;;50.67;43.33;;;;;3.13;63.59;102704.91;5079725;28;45260;-60
2023/01/29 07:42:42;;;;;;;;;48.67;42.33;;;;;3.15;63.86;102702.28;5078914;28;45334;-60
2023/01/29 07:45:09;;;;;;;;;60.33;47.33;;;;;3.17;64.00;102704.06;5061048;28;45300;-60
2023/01/29 07:47:35;;;;;;;;;50.33;44.00;;;;;3.22;63.63;102699.75;5079511;28;45283;-60
2023/01/29 07:50:01;;;;;;;;;46.67;44.33;;;;;3.23;63.25;102698.84;5079614;28;45555;-61
2023/01/29 07:52:31;;;;;;;;;43.67;40.00;;;;;3.25;63.27;102701.53;5060989;28;46003;-61
2023/01/29 07:54:57;;;;;;;;;55.33;44.33;;;;;3.25;63.42;102707.72;5079881;28;45336;-59
2023/01/29 07:57:22;;;;;;;;;59.00;45.00;;;;;3.29;62.99;102698.06;5079479;28;45351;-60
2023/01/29 07:59:48;;;;;;;;;49.33;40.67;;;;;3.36;63.16;102707.91;5079200;28;45550;-59
2023/01/29 08:02:13;;;;;;;;;56.00;42.33;;;;;3.40;62.69;102692.03;5078982;28;45320;-60
2023/01/29 08:04:39;;;;;;;;;54.00;44.33;;;;;3.50;62.26;102706.34;5079376;28;45341;-60
2023/01/29 08:07:04;;;;;;;;;54.33;45.33;;;;;3.45;62.76;102707.16;5060856;28;45335;-61
2023/01/29 08:09:30;;;;;;;;;63.67;49.00;;;;;3.27;62.53;102682.16;5079319;28;45507;-60
2023/01/29 08:11:55;;;;;;;;;51.33;41.33;;;;;3.34;62.65;102706.97;5079013;28;45333;-60
2023/01/29 08:14:22;;;;;;;;;51.33;44.33;;;;;3.34;62.48;102704.31;5078980;28;45187;-60
2023/01/29 08:16:48;;;;;;;;;44.33;40.67;;;;;3.29;62.72;102712.22;5079398;28;45386;-60
2023/01/29 08:19:13;;;;;;;;;51.67;45.00;;;;;3.07;63.06;102664.16;5060731;28;45398;-59
2023/01/29 08:21:38;;;;;;;;;55.67;41.33;;;;;3.36;62.87;102702.59;5078719;28;45335;-60
2023/01/29 08:24:04;;;;;;;;;51.33;44.00;;;;;3.27;62.54;102678.59;5079098;28;45337;-59
2023/01/29 08:26:29;;;;;;;;;61.00;46.67;;;;;3.32;62.73;102696.34;5079089;28;45407;-59
2023/01/29 08:28:55;;;;;;;;;59.00;45.67;;;;;3.41;62.40;102700.91;5078857;28;45554;-59
2023/01/29 08:31:20;;;;;;;;;53.33;44.67;;;;;3.41;62.38;102699.13;5078766;28;45465;-59
2023/01/29 08:33:45;;;;;;;;;55.33;48.33;;;;;3.45;62.94;102701.84;5079212;28;45460;-59
2023/01/29 08:36:11;;;;;;;;;65.67;48.00;;;;;3.49;62.90;102701.03;5078928;28;45330;-59
2023/01/29 08:38:37;;;;;;;;;54.67;44.33;;;;;3.51;63.68;102710.78;5079009;28;45335;-60
2023/01/29 08:41:02;;;;;;;;;57.00;46.00;;;;;3.53;62.83;102693.13;5076066;28;46244;-64
2023/01/29 08:43:27;;;;;;;;;62.33;48.67;;;;;3.57;62.75;102702.94;5073422;28;45789;-60
2023/01/29 08:45:53;;;;;;;;;64.67;50.00;;;;;3.58;62.92;102691.41;5076790;28;46165;-59
2023/01/29 08:48:18;;;;;;;;;62.00;48.00;;;;;3.61;62.91;102712.69;5078274;28;45544;-59
2023/01/29 08:50:44;;;;;;;;;60.00;49.00;;;;;3.50;62.59;102690.41;5078323;28;45442;-60
2023/01/29 08:53:09;;;;;;;;;53.00;46.00;;;;;3.66;62.48;102708.31;5068683;28;45247;-60
2023/01/29 08:55:36;;;;;;;;;67.33;52.33;;;;;3.60;62.59;102694.09;5082123;28;45326;-61
2023/01/29 08:58:06;;;;;;;;;52.00;42.67;;;;;3.83;62.63;102710.34;5081849;28;45342;-60
2023/01/29 09:00:33;;;;;;;;;64.00;49.00;;;;;3.27;62.11;102607.03;5081158;28;45564;-60
2023/01/29 09:02:59;;;;;;;;;68.00;52.33;;;;;3.96;61.49;102726.44;5081822;28;45269;-60
2023/01/29 09:05:25;;;;;;;;;61.33;49.33;;;;;3.97;61.82;102745.91;5082185;28;45384;-60
2023/01/29 09:07:50;;;;;;;;;56.33;47.00;;;;;4.02;61.63;102738.88;5081205;28;45711;-61
2023/01/29 09:10:16;;;;;;;;;69.67;50.33;;;;;4.17;61.58;102733.75;5061838;28;47146;-61
2023/01/29 09:12:41;;;;;;;;;56.67;48.33;;;;;4.26;61.11;102743.59;5082077;28;45291;-60
2023/01/29 09:15:07;;;;;;;;;53.00;45.33;;;;;4.29;60.99;102733.03;5063608;28;45333;-60
2023/01/29 09:17:32;;;;;;;;;59.67;44.67;;;;;4.24;60.69;102710.84;5081846;28;45389;-60
2023/01/29 09:19:58;;;;;;;;;49.33;42.67;;;;;4.42;60.53;102724.34;5081593;28;46234;-61
2023/01/29 09:22:23;;;;;;;;;58.67;47.33;;;;;4.53;60.48;102733.28;5081674;28;45385;-60
2023/01/29 09:24:48;;;;;;;;;61.67;48.00;;;;;4.45;59.72;102713.72;5081861;28;45602;-60
2023/01/29 09:27:14;;;;;;;;;63.33;48.33;;;;;4.51;59.98;102729.72;5081594;28;45519;-60
2023/01/29 09:29:39;;;;;;;;;59.33;43.67;;;;;4.57;59.81;102737.78;5081237;28;45410;-60
2023/01/29 09:32:05;;;;;;;;;63.67;50.33;;;;;4.61;59.36;102730.72;5081632;28;45382;-62
2023/01/29 09:34:30;;;;;;;;;56.00;46.00;;;;;4.62;59.74;102721.88;5081469;28;45369;-60
2023/01/29 09:36:56;;;;;;;;;61.67;49.00;;;;;4.60;59.86;102724.50;5059416;28;46164;-61
2023/01/29 09:39:21;;;;;;;;;64.33;52.00;;;;;4.65;59.95;102730.78;5075102;28;45361;-60
2023/01/29 09:41:57;;;;;;;;;54.00;47.33;;;;;4.75;59.66;102731.75;5081621;28;45593;-60
2023/01/29 09:44:49;;;;;;;;;55.67;47.00;;;;;4.78;59.40;102721.13;5055126;28;45298;-59
2023/01/29 09:47:16;;;;;;;;;50.00;42.67;;;;;4.90;58.55;102726.59;5080981;28;45347;-59
2023/01/29 09:49:46;;;;;;;;;50.67;43.67;;;;;4.88;59.02;102730.97;5080992;28;46204;-60
2023/01/29 09:52:18;;;;;;;;;55.67;45.67;;;;;4.90;58.31;102732.78;5081227;28;45402;-61
2023/01/29 09:55:14;;;;;;;;;57.67;43.33;;;;;4.91;58.62;102723.94;5081469;28;45228;-60
2023/01/29 09:57:58;;;;;;;;;48.00;41.00;;;;;4.80;58.69;102722.06;5081047;28;45265;-60
2023/01/29 10:00:32;;;;;;;;;48.00;38.75;;;;;4.80;58.47;102730.03;5081064;28;45491;-60
2023/01/29 10:03:08;;;;;;;;;48.33;41.00;;;;;4.79;58.72;102731.78;5081154;28;45285;-60
2023/01/29 10:05:33;;;;;;;;;42.00;40.00;;;;;4.76;58.52;102736.19;5080539;28;45294;-62
2023/01/29 10:08:13;;;;;;;;;49.67;42.33;;;;;4.80;58.69;102738.00;5081001;28;45307;-61
2023/01/29 10:10:50;;;;;;;;;43.67;39.67;;;;;4.82;58.93;102738.91;5080504;28;45510;-61
2023/01/29 10:13:59;;;;;;;;;44.00;40.00;;;;;4.54;58.38;102671.34;5080658;28;45410;-60
2023/01/29 10:16:40;;;;;;;;;52.33;41.67;;;;;4.84;58.45;102714.16;5034710;28;45330;-60
2023/01/29 10:19:59;;;;;;;;;45.33;42.00;;;;;4.86;58.06;102723.00;5080792;28;45402;-60
2023/01/29 10:22:37;;;;;;;;;52.33;43.67;;;;;4.92;57.96;102720.41;4981923;28;46681;-62
2023/01/29 10:25:06;;;;;;;;;37.67;37.67;;;;;5.05;58.19;102720.50;5080723;28;45277;-62
2023/01/29 10:27:37;;;;;;;;;52.00;40.67;;;;;5.11;58.14;102718.78;5080994;28;45370;-60
2023/01/29 10:30:08;;;;;;;;;56.67;41.67;;;;;5.28;58.02;102722.47;5080271;28;45568;-61
2023/01/29 10:32:36;;;;;;;;;55.33;43.33;;;;;5.30;57.75;102694.13;5080609;28;46099;-61
2023/01/29 10:35:04;;;;;;;;;45.00;37.33;;;;;5.42;57.88;102706.63;5080434;28;45435;-61
2023/01/29 10:37:38;;;;;;;;;57.00;43.33;;;;;5.47;57.68;102703.97;5078880;28;45416;-60
2023/01/29 10:40:27;;;;;;;;;49.67;41.00;;;;;5.51;57.43;102692.47;5080433;28;45407;-60
2023/01/29 10:43:42;;;;;;;;;43.00;39.33;;;;;5.48;57.05;102693.34;5080108;28;45483;-62
2023/01/29 10:46:18;;;;;;;;;53.00;42.67;;;;;5.64;57.15;102684.56;5065297;28;45500;-61
2023/01/29 10:49:13;;;;;;;;;51.67;40.33;;;;;5.67;56.77;102678.38;5080557;28;45323;-60
2023/01/29 10:52:04;;;;;;;;;54.33;43.00;;;;;5.70;56.42;102684.59;5056174;28;45396;-60
2023/01/29 10:54:48;;;;;;;;;46.00;42.33;;;;;5.78;56.07;102675.78;5080075;28;46202;-60
2023/01/29 10:57:14;;;;;;;;;52.00;42.33;;;;;5.87;55.96;102675.81;5080200;28;45389;-60
2023/01/29 11:00:25;;;;;;;;;51.00;43.25;;;;;5.89;56.18;102666.09;5079856;28;45351;-59
2023/01/29 11:02:51;;;;;;;;;58.00;46.33;;;;;5.99;55.95;102662.59;5038615;28;45295;-59
2023/01/29 11:05:28;;;;;;;;;50.50;42.25;;;;;6.03;55.98;102664.38;5079316;28;46031;-60
2023/01/29 11:08:05;;;;;;;;;51.50;41.25;;;;;6.08;55.81;102671.50;5079889;28;45400;-62
2023/01/29 11:10:36;;;;;;;;;55.67;42.33;;;;;6.18;55.56;102667.09;5079847;28;45403;-60
2023/01/29 11:13:04;;;;;;;;;47.75;41.75;;;;;6.25;55.28;102654.66;5079866;28;45288;-61
2023/01/29 11:15:33;;;;;;;;;51.50;41.75;;;;;6.43;55.42;102666.25;5078773;28;46022;-61
2023/01/29 11:18:12;;;;;;;;;45.00;42.00;;;;;6.75;55.38;102663.63;5079603;28;45409;-60
2023/01/29 11:20:40;;;;;;;;;48.50;41.75;;;;;7.32;54.41;102640.44;5079453;28;45415;-67
2023/01/29 11:23:06;;;;;;;;;48.50;39.50;;;;;8.12;52.60;102646.38;5079215;28;45563;-63
2023/01/29 11:25:31;;;;;;;;;44.25;37.50;;;;;8.53;49.43;102631.00;5070886;28;45347;-60
2023/01/29 11:28:04;;;;;;;;;44.75;39.75;;;;;9.02;50.04;102635.94;5078654;28;46418;-61
2023/01/29 11:30:32;;;;;;;;;45.75;41.25;;;;;9.53;48.76;102630.97;5079448;28;45335;-62
2023/01/29 11:33:17;;;;;;;;;35.50;31.00;;;;;10.17;47.18;102629.28;5079180;28;45490;-60
2023/01/29 11:35:42;;;;;;;;;28.00;27.75;;;;;11.07;44.63;102625.13;5060795;28;46231;-59
2023/01/29 11:38:27;;;;;;;;;40.75;32.00;;;;;11.68;43.58;102624.84;5077404;28;45346;-63
2023/01/29 11:41:05;;;;;;;;;33.00;30.75;;;;;11.94;43.21;102621.63;5078960;28;45410;-60
2023/01/29 11:43:31;;;;;;;;;30.25;30.25;;;;;12.00;42.44;102616.13;5048962;28;46184;-60
2023/01/29 11:46:04;;;;;;;;;32.25;31.00;;;;;11.83;42.93;102604.84;5079190;28;45485;-60
2023/01/29 11:48:42;;;;;;;;;19.25;19.25;;;;;11.60;42.99;102621.41;5079843;28;45366;-61
2023/01/29 11:51:11;;;;;;;;;25.50;20.50;;;;;11.30;43.24;102622.03;5079547;28;45726;-60
2023/01/29 11:53:43;;;;;;;;;17.50;17.50;;;;;10.95;42.79;102615.50;5076996;28;45471;-59
2023/01/29 11:56:20;;;;;;;;;22.25;22.25;;;;;10.57;43.61;102615.25;5067946;28;46366;-61
2023/01/29 11:58:48;;;;;;;;;24.75;18.75;;;;;10.20;44.47;102615.84;5078918;28;45426;-60
2023/01/29 12:01:21;;;;;;;;;21.25;19.50;;;;;9.78;44.93;102611.03;5061296;28;45382;-60
2023/01/29 12:03:52;;;;;;;;;21.50;18.50;;;;;9.47;45.32;102618.53;5078722;28;45559;-61
2023/01/29 12:06:33;;;;;;;;;20.00;20.00;;;;;9.08;46.14;102614.50;5078733;28;46026;-60
2023/01/29 12:09:01;;;;;;;;;15.00;15.00;;;;;8.83;47.02;102620.97;5078964;28;45335;-60
2023/01/29 12:11:30;;;;;;;;;16.25;14.25;;;;;8.57;47.00;102607.81;5079525;28;45534;-60
2023/01/29 12:14:02;;;;;;;;;14.25;14.25;;;;;8.51;47.28;102624.78;5078818;28;45414;-60
2023/01/29 12:16:55;;;;;;;;;13.50;13.50;;;;;8.44;48.24;102614.16;5075054;28;45272;-63
2023/01/29 12:19:30;;;;;;;;;17.50;13.25;;;;;8.18;47.75;102624.97;5077515;28;45374;-60
2023/01/29 12:22:43;;;;;;;;;12.75;12.75;;;;;8.01;48.02;102618.84;5060096;28;45242;-59
2023/01/29 12:25:21;;;;;;;;;22.00;17.75;;;;;7.86;48.89;102610.03;5053191;28;45554;-60
2023/01/29 12:28:03;;;;;;;;;22.00;18.25;;;;;7.82;49.28;102616.28;5078921;28;45526;-60
2023/01/29 12:30:43;;;;;;;;;18.00;18.00;;;;;7.67;49.60;102602.09;5080158;28;45374;-60
2023/01/29 12:33:12;;;;;;;;;17.00;12.25;;;;;7.50;49.01;102602.16;5079126;28;45810;-60
2023/01/29 12:35:43;;;;;;;;;10.00;7.25;;;;;7.43;48.38;102609.31;5063636;28;45709;-61
2023/01/29 12:38:20;;;;;;;;;12.25;12.00;;;;;7.33;49.29;102596.88;5064263;28;45981;-60
2023/01/29 12:41:21;;;;;;;;;11.50;8.00;;;;;7.34;49.15;102587.97;5082501;28;45324;-60
2023/01/29 12:43:52;;;;;;;;;9.75;7.50;;;;;7.34;49.32;102590.66;5063774;28;45340;-59
2023/01/29 12:46:25;;;;;;;;;17.75;14.50;;;;;7.19;49.71;102567.59;5076007;28;45367;-61
2023/01/29 12:48:53;;;;;;;;;14.75;12.00;;;;;7.00;50.32;102562.28;5078049;28;47036;-59
2023/01/29 12:51:24;;;;;;;;;11.50;11.50;;;;;7.15;49.84;102578.25;5081243;28;45284;-60
2023/01/29 12:54:02;;;;;;;;;10.25;10.25;;;;;7.12;50.31;102551.59;5081564;28;45378;-61
2023/01/29 12:56:35;;;;;;;;;11.00;11.00;;;;;7.38;49.87;102567.53;5069566;28;45367;-60
2023/01/29 12:59:09;;;;;;;;;16.00;13.50;;;;;7.50;49.49;102564.78;5080488;28;46320;-62
2023/01/29 13:01:46;;;;;;;;;10.00;8.25;;;;;7.61;49.15;102560.31;5080657;28;45507;-62
2023/01/29 13:04:29;;;;;;;;;21.50;18.00;;;;;7.78;49.53;102553.09;5061706;28;45606;-69
2023/01/29 13:07:08;;;;;;;;;16.25;15.75;;;;;7.94;48.27;102552.13;5075743;28;45563;-62
2023/01/29 13:09:38;;;;;;;;;13.50;13.50;;;;;7.85;48.77;102533.47;5078880;28;46415;-62
2023/01/29 13:12:12;;;;;;;;;12.00;11.25;;;;;8.13;48.35;102544.88;5062007;28;45621;-62
2023/01/29 13:14:53;;;;;;;;;11.00;9.25;;;;;8.18;47.29;102532.34;5081623;28;45426;-63
2023/01/29 13:17:29;;;;;;;;;9.00;9.00;;;;;8.19;47.66;102526.13;5081361;28;45670;-62
2023/01/29 13:20:00;;;;;;;;;17.50;16.50;;;;;8.11;47.02;102521.72;5077665;28;45367;-73
2023/01/29 13:22:31;;;;;;;;;12.00;12.00;;;;;8.01;47.50;102530.69;5081740;28;45392;-63
2023/01/29 13:24:56;;;;;;;;;14.50;13.50;;;;;7.87;47.92;102514.78;5081669;28;45358;-65
2023/01/29 13:27:28;;;;;;;;;13.25;12.50;;;;;7.80;48.47;102521.06;5081249;28;45313;-64
2023/01/29 13:29:55;;;;;;;;;13.00;11.75;;;;;7.89;48.11;102513.88;5081177;28;46204;-64
2023/01/29 13:32:22;;;;;;;;;11.50;11.50;;;;;8.12;48.15;102505.69;5081459;28;45350;-64
2023/01/29 13:34:49;;;;;;;;;15.50;13.50;;;;;8.37;47.32;102503.75;5081455;28;45346;-63
2023/01/29 13:37:44;;;;;;;;;13.00;11.75;;;;;8.36;46.77;102501.97;5079164;28;45442;-62
2023/01/29 13:40:25;;;;;;;;;13.75;12.50;;;;;8.27;46.24;102478.84;5059840;28;47460;-64
2023/01/29 13:42:53;;;;;;;;;15.00;11.25;;;;;8.63;53.17;102487.47;5081085;28;45600;-69
2023/01/29 13:45:22;;;;;;;;;7.75;7.75;;;;;8.76;48.00;102480.22;5078584;28;45505;-64
2023/01/29 13:47:49;;;;;;;;;10.75;10.75;;;;;8.83;47.05;102484.59;5080734;28;45311;-66
2023/01/29 13:50:38;;;;;;;;;13.50;12.75;;;;;8.92;47.16;102487.16;5081249;28;45650;-66
2023/01/29 13:53:07;;;;;;;;;15.25;13.75;;;;;9.00;47.16;102477.25;5080895;28;45390;-67
2023/01/29 13:55:36;;;;;;;;;14.50;14.25;;;;;9.06;46.85;102477.19;5080816;28;45442;-66
2023/01/29 13:58:03;;;;;;;;;13.00;11.50;;;;;9.13;46.05;102473.50;5080517;28;45306;-65
2023/01/29 14:00:32;;;;;;;;;17.50;13.00;;;;;9.00;46.27;102466.56;5081007;28;45590;-63
2023/01/29 14:03:00;;;;;;;;;14.50;13.25;;;;;8.83;46.25;102464.06;5062826;28;45329;-57
2023/01/29 14:05:28;;;;;;;;;11.50;11.50;;;;;8.82;46.80;102456.94;5081057;28;45273;-63
2023/01/29 14:07:58;;;;;;;;;13.25;11.75;;;;;8.85;47.45;102448.00;5080875;28;45516;-60
2023/01/29 14:10:28;;;;;;;;;13.50;12.00;;;;;8.80;46.80;102415.97;5080914;28;47219;-59
2023/01/29 14:13:20;;;;;;;;;13.00;13.00;;;;;9.06;46.37;102445.97;5080442;28;45366;-66
2023/01/29 14:15:57;;;;;;;;;14.00;10.75;;;;;9.15;45.82;102444.06;5081131;28;45260;-62
2023/01/29 14:18:34;;;;;;;;;9.75;9.75;;;;;9.01;45.89;102433.56;5080886;28;45386;-63
2023/01/29 14:21:20;;;;;;;;;15.25;13.25;;;;;8.96;46.68;102433.59;5080994;28;46422;-69
2023/01/29 14:23:51;;;;;;;;;20.25;16.00;;;;;9.11;47.51;102429.84;5080484;28;45453;-62
2023/01/29 14:26:19;;;;;;;;;11.00;11.00;;;;;9.25;46.40;102427.88;5081015;28;45423;-63
2023/01/29 14:29:03;;;;;;;;;12.25;12.25;;;;;9.32;46.56;102409.94;5080500;28;45422;-63
2023/01/29 14:31:34;;;;;;;;;14.25;13.25;;;;;9.56;45.90;102430.09;5080255;28;45705;-62
2023/01/29 14:34:02;;;;;;;;;16.50;16.00;;;;;9.67;45.58;102428.16;5080809;28;45246;-63
2023/01/29 14:36:28;;;;;;;;;13.00;11.50;;;;;9.67;45.54;102428.16;5080631;28;45304;-65
2023/01/29 14:38:53;;;;;;;;;12.50;10.75;;;;;9.75;46.20;102405.72;5080733;28;45170;-62
2023/01/29 14:41:33;;;;;;;;;24.50;15.00;;;;;9.90;45.14;102404.56;5080284;28;45360;-62
2023/01/29 14:44:43;;;;;;;;;13.00;9.00;;;;;10.10;44.84;102402.44;5080157;28;45362;-60
2023/01/29 14:47:26;;;;;;;;;10.50;10.00;;;;;10.31;44.27;102398.50;5055526;28;45214;-62
2023/01/29 14:50:00;;;;;;;;;11.00;11.00;;;;;10.31;44.69;102394.94;5080450;28;45512;-60
2023/01/29 14:52:36;;;;;;;;;9.50;9.50;;;;;10.36;43.88;102391.28;5079729;28;46995;-60
2023/01/29 14:55:05;;;;;;;;;12.50;11.50;;;;;10.36;44.39;102391.28;5077947;28;45437;-60
2023/01/29 14:57:32;;;;;;;;;86.67;67.67;;;;;10.31;45.00;102395.84;5074954;28;45330;-60
2023/01/29 15:00:04;;;;;;;;;15.00;13.25;;;;;10.32;44.46;102397.59;5074099;28;45536;-61
2023/01/29 15:02:42;;;;;;;;;12.50;12.50;;;;;10.17;43.54;102393.41;5078389;28;46291;-61
2023/01/29 15:05:19;;;;;;;;;11.50;9.75;;;;;9.92;45.25;102392.03;5058322;28;45324;-60
2023/01/29 15:08:02;;;;;;;;;15.75;12.00;;;;;9.61;44.97;102396.13;5048774;28;45297;-70
2023/01/29 15:11:32;;;;;;;;;6.25;3.50;;;;;9.48;46.00;102392.75;5061251;28;45520;-69
2023/01/29 15:13:49;;;;;;;;;12.50;12.50;;;;;9.23;45.41;102370.81;5074675;28;46137;-74
2023/01/29 15:16:28;;;;;;;;;8.50;8.50;;;;;9.18;45.97;102387.84;5079776;28;45379;-67
2023/01/29 15:19:03;;;;;;;;;9.00;9.00;;;;;9.17;46.25;102403.00;5080048;28;45446;-73
2023/01/29 15:21:28;;;;;;;;;11.00;8.75;;;;;9.09;46.55;102394.22;5059232;28;45600;-72
2023/01/29 15:24:04;;;;;;;;;11.75;11.25;;;;;8.96;47.06;102401.50;5074897;28;47421;-73
2023/01/29 15:26:29;;;;;;;;;12.00;12.00;;;;;8.76;46.80;102394.66;5072730;28;45413;-71
2023/01/29 15:28:59;;;;;;;;;12.50;11.00;;;;;8.44;47.62;102387.84;5079489;28;45383;-72
2023/01/29 15:31:26;;;;;;;;;11.00;8.00;;;;;8.40;47.90;102395.94;5079275;28;45457;-70
2023/01/29 15:33:54;;;;;;;;;14.75;12.75;;;;;8.38;48.18;102395.06;5078393;28;45479;-70
2023/01/29 15:36:27;;;;;;;;;11.00;10.00;;;;;8.37;48.22;102399.50;5077505;28;45358;-72
2023/01/29 15:39:10;;;;;;;;;77.33;56.67;;;;;8.41;48.38;102406.63;5079336;28;45324;-75
2023/01/29 15:41:35;;;;;;;;;11.00;11.00;;;;;8.27;48.48;102406.69;5079000;28;45576;-74
2023/01/29 15:44:01;;;;;;;;;14.75;11.25;;;;;8.15;48.76;102405.94;5079072;28;45496;-77
2023/01/29 15:46:34;;;;;;;;;13.50;11.25;;;;;8.11;48.84;102414.88;5077915;28;45435;-74
2023/01/29 15:49:12;;;;;;;;;13.25;11.50;;;;;8.07;49.17;102418.50;5079040;28;45488;-73
2023/01/29 15:51:38;;;;;;;;;12.00;12.00;;;;;8.05;49.55;102414.94;5079281;28;45498;-75
2023/01/29 15:54:12;;;;;;;;;14.50;14.50;;;;;8.07;49.67;102418.50;5078579;28;45467;-76
2023/01/29 15:56:41;;;;;;;;;15.00;13.00;;;;;8.07;49.24;102413.16;5079049;28;45412;-74
2023/01/29 15:59:13;;;;;;;;;15.00;11.00;;;;;8.07;49.29;102415.81;5078059;28;45423;-73
2023/01/29 16:01:39;;;;;;;;;17.75;16.25;;;;;8.12;49.57;102419.31;5078802;28;45366;-74
2023/01/29 16:04:05;;;;;;;;;20.25;16.75;;;;;8.05;49.41;102413.16;5078321;28;46114;-76
2023/01/29 16:06:40;;;;;;;;;13.25;12.25;;;;;8.05;49.83;102420.28;5078339;28;45453;-72
2023/01/29 16:09:06;;;;;;;;;22.00;18.75;;;;;8.05;49.79;102425.63;5078650;28;45351;-72
2023/01/29 16:11:34;;;;;;;;;15.00;15.00;;;;;7.98;50.34;102422.13;5078927;28;45469;-72
2023/01/29 16:14:01;;;;;;;;;16.50;16.00;;;;;7.85;50.09;102397.28;5078209;28;46346;-69
2023/01/29 16:16:27;;;;;;;;;15.50;14.50;;;;;8.00;49.82;102420.31;5078320;28;45450;-70
2023/01/29 16:18:54;;;;;;;;;19.25;19.25;;;;;7.87;50.03;102411.53;5077379;28;45402;-70
2023/01/29 16:21:31;;;;;;;;;23.00;19.50;;;;;7.88;50.27;102409.75;5075416;28;45478;-59
2023/01/29 16:24:01;;;;;;;;;17.75;16.50;;;;;7.87;50.36;102402.63;5073569;28;45355;-65
2023/01/29 16:26:33;;;;;;;;;14.25;12.50;;;;;7.86;50.69;102403.53;5054734;28;45307;-64
2023/01/29 16:29:04;;;;;;;;;17.00;16.25;;;;;7.74;50.46;102395.63;5078970;28;45521;-63
2023/01/29 16:31:31;;;;;;;;;16.75;16.25;;;;;7.77;50.27;102409.81;5078536;28;45285;-65
2023/01/29 16:34:04;;;;;;;;;24.50;22.50;;;;;7.74;50.63;102403.63;5078744;28;46418;-65
2023/01/29 16:36:30;;;;;;;;;21.50;21.00;;;;;7.75;50.65;102416.06;5076760;28;45276;-64